createdAt,value
2022-08-22T00:01:15.327Z,25.37
2022-08-22T00:02:48.331Z,27.78
2022-08-22T00:02:55.493Z,25.39
2022-08-22T00:03:10.964Z,25.99
2022-08-22T00:03:11.175Z,25.84
2022-08-22T00:07:02.378Z,25.56
2022-08-22T00:12:18.969Z,25.22
2022-08-22T00:17:48.323Z,25.67
2022-08-22T00:22:53.501Z,25.27
2022-08-22T00:28:10.625Z,25.19
2022-08-22T00:33:43.616Z,25.17
2022-08-22T00:38:56.771Z,24.95
2022-08-22T00:44:02.077Z,25.07
2022-08-22T00:49:30.723Z,25.35
2022-08-22T00:54:35.607Z,25.23
2022-08-22T01:00:03.667Z,25.27
2022-08-22T01:05:24.317Z,25.33
2022-08-22T01:10:59.049Z,25.04
2022-08-22T01:16:33.364Z,25.17
2022-08-22T01:21:44.802Z,25.15
2022-08-22T01:27:31.767Z,25.05
2022-08-22T01:33:08.835Z,25.21
2022-08-22T01:38:23.507Z,25.15
2022-08-22T01:44:01.187Z,25.07
2022-08-22T01:49:37.936Z,24.49
2022-08-22T01:54:52.554Z,24.77
2022-08-22T02:00:10.023Z,24.83
2022-08-22T02:05:19.112Z,24.76
2022-08-22T02:11:13.644Z,24.52
2022-08-22T02:16:46.652Z,24.75
2022-08-22T02:22:28.685Z,24.84
2022-08-22T02:27:45.338Z,24.81
2022-08-22T02:33:01.161Z,24.93
2022-08-22T02:38:09.407Z,24.96
2022-08-22T02:43:34.508Z,24.95
2022-08-22T02:48:52.791Z,24.78
2022-08-22T02:54:17.540Z,24.52
2022-08-22T02:59:39.565Z,24.31
2022-08-22T03:04:41.890Z,24.81
2022-08-22T03:09:50.056Z,24.75
2022-08-22T03:15:10.789Z,24.70
2022-08-22T03:20:37.189Z,24.45
2022-08-22T03:25:48.045Z,24.64
2022-08-22T03:31:10.399Z,24.41
2022-08-22T03:36:13.831Z,24.58
2022-08-22T03:41:16.162Z,24.57
2022-08-22T03:46:56.380Z,24.50
2022-08-22T03:52:32.926Z,24.39
2022-08-22T03:57:40.848Z,24.40
2022-08-22T04:03:09.979Z,24.15
2022-08-22T04:08:15.286Z,24.06
2022-08-22T04:13:33.291Z,24.23
2022-08-22T04:18:44.725Z,24.33
2022-08-22T04:24:18.173Z,24.26
2022-08-22T04:29:29.274Z,24.19
2022-08-22T04:34:40.858Z,24.25
2022-08-22T04:39:58.390Z,24.40
2022-08-22T04:45:24.872Z,24.16
2022-08-22T04:50:44.532Z,24.42
2022-08-22T04:55:57.482Z,24.37
2022-08-22T05:01:19.881Z,24.46
2022-08-22T05:06:30.421Z,24.39
2022-08-22T05:11:35.492Z,24.51
2022-08-22T05:16:42.893Z,24.40
2022-08-22T05:21:48.578Z,24.98
2022-08-22T05:26:54.447Z,25.04
2022-08-22T05:32:12.700Z,24.89
2022-08-22T05:37:23.650Z,25.06
2022-08-22T05:42:38.035Z,25.12
2022-08-22T05:47:42.397Z,25.32
2022-08-22T05:53:18.435Z,25.42
2022-08-22T05:58:39.685Z,25.62
2022-08-22T06:03:51.568Z,25.59
2022-08-22T06:09:23.643Z,25.81
2022-08-22T06:14:41.210Z,26.11
2022-08-22T06:19:48.144Z,26.23
2022-08-22T06:24:52.424Z,26.35
2022-08-22T06:30:00.135Z,26.37
2022-08-22T06:35:07.986Z,26.16
2022-08-22T06:40:14.125Z,26.33
2022-08-22T06:45:35.482Z,26.57
2022-08-22T06:50:41.470Z,26.81
2022-08-22T06:55:57.136Z,26.70
2022-08-22T07:01:11.615Z,27.02
2022-08-22T07:06:18.041Z,26.78
2022-08-22T07:11:28.545Z,26.91
2022-08-22T07:16:44.118Z,26.98
2022-08-22T07:21:48.608Z,26.98
2022-08-22T07:27:04.802Z,27.06
2022-08-22T07:32:11.413Z,27.52
2022-08-22T07:37:31.347Z,27.03
2022-08-22T07:42:55.881Z,27.15
2022-08-22T07:48:19.799Z,27.39
2022-08-22T07:53:52.927Z,27.79
2022-08-22T07:59:09.881Z,27.82
2022-08-22T08:04:21.594Z,27.50
2022-08-22T08:09:28.468Z,28.04
2022-08-22T08:14:32.008Z,28.03
2022-08-22T08:19:39.329Z,28.33
2022-08-22T08:24:44.526Z,28.13
2022-08-22T08:30:15.238Z,28.56
2022-08-22T08:35:28.640Z,28.14
2022-08-22T08:40:33.894Z,28.90
2022-08-22T08:46:03.512Z,28.82
2022-08-22T08:51:36.112Z,28.80
2022-08-22T08:56:50.197Z,28.86
2022-08-22T09:02:05.132Z,29.26
2022-08-22T09:07:42.867Z,29.16
2022-08-22T09:13:18.994Z,29.04
2022-08-22T09:18:43.656Z,28.90
2022-08-22T09:24:09.979Z,29.00
2022-08-22T09:29:34.729Z,29.03
2022-08-22T09:35:12.483Z,29.22
2022-08-22T09:45:58.280Z,29.65
2022-08-22T09:51:31.856Z,29.67
2022-08-22T09:56:47.100Z,30.00
2022-08-22T10:02:15.752Z,29.83
2022-08-22T10:07:18.206Z,30.06
2022-08-22T10:12:36.592Z,30.14
2022-08-22T10:17:57.956Z,30.12
2022-08-22T10:23:21.075Z,30.10
2022-08-22T10:28:49.983Z,30.27
2022-08-22T10:34:13.816Z,30.20
2022-08-22T10:39:23.950Z,30.39
2022-08-22T10:44:49.722Z,30.59
2022-08-22T10:50:24.192Z,30.80
2022-08-22T10:55:34.864Z,30.95
2022-08-22T11:00:50.817Z,31.15
2022-08-22T11:05:58.835Z,31.30
2022-08-22T11:11:19.499Z,31.64
2022-08-22T11:17:27.353Z,31.87
2022-08-22T11:22:34.371Z,32.04
2022-08-22T11:27:40.870Z,32.17
2022-08-22T11:33:16.596Z,32.27
2022-08-22T11:38:45.099Z,32.49
2022-08-22T11:43:59.116Z,32.42
2022-08-22T11:49:27.820Z,32.55
2022-08-22T11:54:45.630Z,32.26
2022-08-22T12:00:07.537Z,31.76
2022-08-22T12:05:23.509Z,31.38
2022-08-22T12:10:33.053Z,31.42
2022-08-22T12:16:09.188Z,31.54
2022-08-22T12:21:23.407Z,32.01
2022-08-22T12:26:54.855Z,32.00
2022-08-22T12:32:20.635Z,31.96
2022-08-22T12:37:57.795Z,32.14
2022-08-22T12:43:25.334Z,32.12
2022-08-22T12:48:45.981Z,32.29
2022-08-22T12:54:15.000Z,31.62
2022-08-22T12:59:24.830Z,31.23
2022-08-22T13:04:34.212Z,30.98
2022-08-22T13:09:43.287Z,30.75
2022-08-22T13:14:50.179Z,30.59
2022-08-22T13:20:11.055Z,30.37
2022-08-22T13:25:25.542Z,29.81
2022-08-22T13:30:37.680Z,29.85
2022-08-22T13:35:52.041Z,29.90
2022-08-22T13:40:58.335Z,29.82
2022-08-22T13:46:05.242Z,29.67
2022-08-22T13:51:16.299Z,29.48
2022-08-22T13:56:36.095Z,29.34
2022-08-22T14:01:52.994Z,29.15
2022-08-22T14:07:07.047Z,29.27
2022-08-22T14:12:21.511Z,29.17
2022-08-22T14:17:34.437Z,29.12
2022-08-22T14:22:39.464Z,28.84
2022-08-22T14:27:48.585Z,28.69
2022-08-22T14:32:59.691Z,28.48
2022-08-22T14:38:29.986Z,28.60
2022-08-22T14:43:33.421Z,28.54
2022-08-22T14:48:53.284Z,28.04
2022-08-22T14:54:13.882Z,27.21
2022-08-22T14:59:46.490Z,27.37
2022-08-22T15:04:55.490Z,26.16
2022-08-22T15:10:31.797Z,25.63
2022-08-22T15:15:55.063Z,24.98
2022-08-22T15:21:08.534Z,25.39
2022-08-22T15:26:21.135Z,24.89
2022-08-22T15:31:24.321Z,25.09
2022-08-22T15:36:28.053Z,25.24
2022-08-22T15:41:41.554Z,25.11
2022-08-22T15:47:02.532Z,25.34
2022-08-22T15:52:28.683Z,25.21
2022-08-22T16:03:27.969Z,24.15
2022-08-22T16:08:37.070Z,25.27
2022-08-22T16:13:43.286Z,25.32
2022-08-22T16:18:48.232Z,25.41
2022-08-22T16:23:50.589Z,25.43
2022-08-22T16:29:17.355Z,25.25
2022-08-22T16:34:38.903Z,25.12
2022-08-22T16:39:59.194Z,25.06
2022-08-22T16:45:07.475Z,25.03
2022-08-22T16:50:24.598Z,24.98
2022-08-22T16:55:29.816Z,25.19
2022-08-22T17:00:34.968Z,25.31
2022-08-22T17:06:01.356Z,24.95
2022-08-22T17:11:11.810Z,24.95
2022-08-22T17:16:29.900Z,24.57
2022-08-22T17:22:16.730Z,24.82
2022-08-22T17:27:32.537Z,24.77
2022-08-22T17:33:13.890Z,24.91
2022-08-22T17:38:28.967Z,24.81
2022-08-22T17:43:58.206Z,24.57
2022-08-22T17:49:13.509Z,24.47
2022-08-22T17:54:20.140Z,24.51
2022-08-22T17:59:55.601Z,24.51
2022-08-22T18:05:08.424Z,24.36
2022-08-22T18:10:33.724Z,24.40
2022-08-22T18:15:50.556Z,24.15
2022-08-22T18:21:21.499Z,23.90
2022-08-22T18:26:42.324Z,24.37
2022-08-22T18:32:19.817Z,24.36
2022-08-22T18:37:35.405Z,24.34
2022-08-22T18:42:56.513Z,24.36
2022-08-22T18:47:59.162Z,24.21
2022-08-22T18:53:02.522Z,24.26
2022-08-22T18:58:29.059Z,24.29
2022-08-22T19:04:08.952Z,24.14
2022-08-22T19:09:36.770Z,24.22
2022-08-22T19:15:03.986Z,24.12
2022-08-22T19:20:40.976Z,23.72
2022-08-22T19:26:24.337Z,23.99
2022-08-22T19:31:26.692Z,23.96
2022-08-22T19:36:33.920Z,23.90
2022-08-22T19:41:48.801Z,23.97
2022-08-22T19:47:27.526Z,23.91
2022-08-22T19:52:51.435Z,23.86
2022-08-22T19:58:05.400Z,23.69
2022-08-22T20:03:32.887Z,23.88
2022-08-22T20:08:51.364Z,23.93
2022-08-22T20:14:20.154Z,23.76
2022-08-22T20:25:58.822Z,23.91
2022-08-22T20:31:04.638Z,23.77
2022-08-22T20:36:27.880Z,23.96
2022-08-22T20:41:37.665Z,24.01
2022-08-22T20:46:44.021Z,23.75
2022-08-22T20:52:06.431Z,23.61
2022-08-22T20:57:19.138Z,23.78
2022-08-22T21:02:26.801Z,23.49
2022-08-22T21:07:33.045Z,23.25
2022-08-22T21:12:35.618Z,23.24
2022-08-22T21:17:39.279Z,23.28
2022-08-22T21:22:52.842Z,22.92
2022-08-22T21:27:55.612Z,22.21
2022-08-22T21:32:58.577Z,22.26
2022-08-22T21:38:02.697Z,22.51
2022-08-22T21:43:13.444Z,22.68
2022-08-22T21:48:42.673Z,22.92
2022-08-22T21:53:45.085Z,22.88
2022-08-22T21:58:48.071Z,22.96
2022-08-22T22:03:50.588Z,23.10
2022-08-22T22:08:53.338Z,23.02
2022-08-22T22:13:56.453Z,22.94
2022-08-22T22:18:59.035Z,22.10
2022-08-22T22:24:01.559Z,22.54
2022-08-22T22:29:11.120Z,22.75
2022-08-22T22:34:13.898Z,22.94
2022-08-22T22:39:16.363Z,23.00
2022-08-22T22:44:18.719Z,23.00
2022-08-22T22:49:25.441Z,22.75
2022-08-22T22:54:28.434Z,22.80
2022-08-22T22:59:35.108Z,22.85
2022-08-22T23:04:40.684Z,22.99
2022-08-22T23:09:45.144Z,23.06
2022-08-22T23:14:47.798Z,22.33
2022-08-22T23:19:52.113Z,22.80
2022-08-22T23:24:54.593Z,22.68
2022-08-22T23:29:57.049Z,22.80
2022-08-22T23:34:59.466Z,22.86
2022-08-22T23:40:01.950Z,22.66
2022-08-22T23:45:05.133Z,22.69
2022-08-22T23:50:08.036Z,22.67
2022-08-22T23:55:10.606Z,22.60
